sensor_id;sensor_type;location;lat;lon;timestamp;P1;durP1;ratioP1;P2;durP2;ratioP2
7454;SDS011;3769;51.208;4.454;2023-12-28T00:02:18;12;;;11.2;;
7454;SDS011;3769;51.208;4.454;2023-12-28T00:07:18;12.1;;;11.1;;
7454;SDS011;3769;51.208;4.454;2023-12-28T00:12:18;12.1;;;11.3;;
7454;SDS011;3769;51.208;4.454;2023-12-28T00:17:18;12.3;;;11.5;;
7454;SDS011;3769;51.208;4.454;2023-12-28T00:22:18;12.9;;;12;;
7454;SDS011;3769;51.208;4.454;2023-12-28T00:27:18;12.6;;;11.3;;
7454;SDS011;3769;51.208;4.454;2023-12-28T00:32:18;11.7;;;10.9;;
7454;SDS011;3769;51.208;4.454;2023-12-28T00:37:18;11.6;;;10.7;;
7454;SDS011;3769;51.208;4.454;2023-12-28T00:42:18;12.3;;;11.6;;
7454;SDS011;3769;51.208;4.454;2023-12-28T00:47:18;12.5;;;11.8;;
7454;SDS011;3769;51.208;4.454;2023-12-28T00:52:18;13.5;;;12.7;;
7454;SDS011;3769;51.208;4.454;2023-12-28T00:57:18;14;;;13.1;;
7454;SDS011;3769;51.208;4.454;2023-12-28T01:02:18;14.5;;;13.3;;
7454;SDS011;3769;51.208;4.454;2023-12-28T01:07:18;14.5;;;13.4;;
7454;SDS011;3769;51.208;4.454;2023-12-28T01:12:18;14.4;;;13.4;;
7454;SDS011;3769;51.208;4.454;2023-12-28T01:17:18;14.6;;;13.4;;
7454;SDS011;3769;51.208;4.454;2023-12-28T01:22:18;14.2;;;13.2;;
7454;SDS011;3769;51.208;4.454;2023-12-28T01:27:18;13.2;;;12.4;;
7454;SDS011;3769;51.208;4.454;2023-12-28T01:32:18;13.2;;;12.3;;
7454;SDS011;3769;51.208;4.454;2023-12-28T01:37:18;13.8;;;12.9;;
7454;SDS011;3769;51.208;4.454;2023-12-28T01:42:18;13.7;;;12.8;;
7454;SDS011;3769;51.208;4.454;2023-12-28T01:47:18;13.8;;;12.8;;
7454;SDS011;3769;51.208;4.454;2023-12-28T01:52:19;14.2;;;13.2;;
7454;SDS011;3769;51.208;4.454;2023-12-28T01:57:18;12.9;;;12;;
7454;SDS011;3769;51.208;4.454;2023-12-28T02:02:18;13.3;;;12.3;;
7454;SDS011;3769;51.208;4.454;2023-12-28T02:07:18;13.2;;;12.3;;
7454;SDS011;3769;51.208;4.454;2023-12-28T02:12:18;12.9;;;12;;
7454;SDS011;3769;51.208;4.454;2023-12-28T02:17:22;13;;;11.9;;
7454;SDS011;3769;51.208;4.454;2023-12-28T02:22:18;13.4;;;12.1;;
7454;SDS011;3769;51.208;4.454;2023-12-28T02:27:18;12.8;;;11.8;;
7454;SDS011;3769;51.208;4.454;2023-12-28T02:32:19;12.6;;;11.6;;
7454;SDS011;3769;51.208;4.454;2023-12-28T02:37:18;13.3;;;12.2;;
7454;SDS011;3769;51.208;4.454;2023-12-28T02:42:18;13.2;;;12.1;;
7454;SDS011;3769;51.208;4.454;2023-12-28T02:47:18;13;;;12.2;;
7454;SDS011;3769;51.208;4.454;2023-12-28T02:52:18;12.6;;;11.8;;
7454;SDS011;3769;51.208;4.454;2023-12-28T02:57:18;12.6;;;11.6;;
7454;SDS011;3769;51.208;4.454;2023-12-28T03:02:18;12.7;;;11.7;;
7454;SDS011;3769;51.208;4.454;2023-12-28T03:07:18;12.5;;;11.4;;
7454;SDS011;3769;51.208;4.454;2023-12-28T03:12:18;12.9;;;11.8;;
7454;SDS011;3769;51.208;4.454;2023-12-28T03:17:18;13.4;;;12.1;;
7454;SDS011;3769;51.208;4.454;2023-12-28T03:22:18;12.9;;;11.9;;
7454;SDS011;3769;51.208;4.454;2023-12-28T03:27:18;12.1;;;11.2;;
7454;SDS011;3769;51.208;4.454;2023-12-28T03:32:18;12.1;;;11.1;;
7454;SDS011;3769;51.208;4.454;2023-12-28T03:37:18;13.2;;;12.2;;
7454;SDS011;3769;51.208;4.454;2023-12-28T03:42:18;13;;;12.1;;
7454;SDS011;3769;51.208;4.454;2023-12-28T03:47:19;13.3;;;12.2;;
7454;SDS011;3769;51.208;4.454;2023-12-28T03:52:18;13.7;;;12.6;;
7454;SDS011;3769;51.208;4.454;2023-12-28T03:57:18;14.2;;;13.2;;
7454;SDS011;3769;51.208;4.454;2023-12-28T04:02:19;13.9;;;12.4;;
7454;SDS011;3769;51.208;4.454;2023-12-28T04:07:18;14.8;;;13.6;;
7454;SDS011;3769;51.208;4.454;2023-12-28T04:12:18;13.9;;;12.6;;
7454;SDS011;3769;51.208;4.454;2023-12-28T04:17:19;13.8;;;12.5;;
7454;SDS011;3769;51.208;4.454;2023-12-28T04:22:18;13.7;;;12.6;;
7454;SDS011;3769;51.208;4.454;2023-12-28T04:27:18;14.8;;;13.4;;
7454;SDS011;3769;51.208;4.454;2023-12-28T04:32:18;14.5;;;13.3;;
7454;SDS011;3769;51.208;4.454;2023-12-28T04:37:18;14.6;;;13.4;;
7454;SDS011;3769;51.208;4.454;2023-12-28T04:42:18;14.1;;;12.9;;
7454;SDS011;3769;51.208;4.454;2023-12-28T04:47:18;14.4;;;13.3;;
7454;SDS011;3769;51.208;4.454;2023-12-28T04:52:18;14.3;;;13;;
7454;SDS011;3769;51.208;4.454;2023-12-28T04:57:18;13.5;;;12.1;;
7454;SDS011;3769;51.208;4.454;2023-12-28T05:02:18;13.9;;;12.7;;
7454;SDS011;3769;51.208;4.454;2023-12-28T05:07:19;14.4;;;13.1;;
7454;SDS011;3769;51.208;4.454;2023-12-28T05:12:18;14.2;;;12.9;;
7454;SDS011;3769;51.208;4.454;2023-12-28T05:17:19;14.3;;;12.8;;
7454;SDS011;3769;51.208;4.454;2023-12-28T05:22:18;17.2;;;13.9;;
7454;SDS011;3769;51.208;4.454;2023-12-28T05:27:18;15;;;13.7;;
7454;SDS011;3769;51.208;4.454;2023-12-28T05:32:19;16.1;;;14.7;;
7454;SDS011;3769;51.208;4.454;2023-12-28T05:37:18;15.5;;;14;;
7454;SDS011;3769;51.208;4.454;2023-12-28T05:42:18;17.3;;;13.8;;
7454;SDS011;3769;51.208;4.454;2023-12-28T05:47:18;15;;;13.6;;
7454;SDS011;3769;51.208;4.454;2023-12-28T05:52:18;16.3;;;13.6;;
7454;SDS011;3769;51.208;4.454;2023-12-28T05:57:18;17.4;;;12.3;;
7454;SDS011;3769;51.208;4.454;2023-12-28T06:02:18;15.3;;;13.2;;
7454;SDS011;3769;51.208;4.454;2023-12-28T06:07:18;15.8;;;14.2;;
7454;SDS011;3769;51.208;4.454;2023-12-28T06:12:18;18.9;;;15.8;;
7454;SDS011;3769;51.208;4.454;2023-12-28T06:17:18;18.8;;;17;;
7454;SDS011;3769;51.208;4.454;2023-12-28T06:22:18;20.4;;;17.2;;
7454;SDS011;3769;51.208;4.454;2023-12-28T06:27:18;19.5;;;17.6;;
7454;SDS011;3769;51.208;4.454;2023-12-28T06:32:18;19.6;;;17.8;;
7454;SDS011;3769;51.208;4.454;2023-12-28T06:37:18;20.4;;;18.3;;
7454;SDS011;3769;51.208;4.454;2023-12-28T06:42:19;19;;;17.2;;
7454;SDS011;3769;51.208;4.454;2023-12-28T06:47:18;19.5;;;17.6;;
7454;SDS011;3769;51.208;4.454;2023-12-28T06:52:18;18.4;;;16.5;;
7454;SDS011;3769;51.208;4.454;2023-12-28T06:57:19;18.5;;;16.7;;
7454;SDS011;3769;51.208;4.454;2023-12-28T07:02:18;19.9;;;15.8;;
7454;SDS011;3769;51.208;4.454;2023-12-28T07:07:18;17.2;;;15.7;;
7454;SDS011;3769;51.208;4.454;2023-12-28T07:12:18;17;;;14.4;;
7454;SDS011;3769;51.208;4.454;2023-12-28T07:17:18;20;;;17.1;;
7454;SDS011;3769;51.208;4.454;2023-12-28T07:22:19;18.4;;;16.3;;
7454;SDS011;3769;51.208;4.454;2023-12-28T07:27:19;20.3;;;15.6;;
7454;SDS011;3769;51.208;4.454;2023-12-28T07:32:19;18.9;;;17;;
7454;SDS011;3769;51.208;4.454;2023-12-28T07:37:18;20.7;;;16.4;;
7454;SDS011;3769;51.208;4.454;2023-12-28T07:42:18;19.4;;;17.5;;
7454;SDS011;3769;51.208;4.454;2023-12-28T07:47:18;21.1;;;15;;
7454;SDS011;3769;51.208;4.454;2023-12-28T07:52:18;20.3;;;15.5;;
7454;SDS011;3769;51.208;4.454;2023-12-28T07:57:18;17.5;;;15.7;;
7454;SDS011;3769;51.208;4.454;2023-12-28T08:02:18;19.7;;;16.7;;
7454;SDS011;3769;51.208;4.454;2023-12-28T08:07:18;19.9;;;17;;
7454;SDS011;3769;51.208;4.454;2023-12-28T08:12:18;18.9;;;16.7;;
7454;SDS011;3769;51.208;4.454;2023-12-28T08:17:18;24.4;;;18.5;;
7454;SDS011;3769;51.208;4.454;2023-12-28T08:22:18;19.2;;;17.3;;
7454;SDS011;3769;51.208;4.454;2023-12-28T08:27:18;26.7;;;18.6;;
7454;SDS011;3769;51.208;4.454;2023-12-28T08:32:18;21.5;;;17.5;;
7454;SDS011;3769;51.208;4.454;2023-12-28T08:37:18;19.2;;;16;;
7454;SDS011;3769;51.208;4.454;2023-12-28T08:42:18;19.9;;;17.9;;
7454;SDS011;3769;51.208;4.454;2023-12-28T08:47:18;21.5;;;19.3;;
7454;SDS011;3769;51.208;4.454;2023-12-28T08:52:18;23.4;;;18.1;;
7454;SDS011;3769;51.208;4.454;2023-12-28T08:57:19;20.6;;;18;;
7454;SDS011;3769;51.208;4.454;2023-12-28T09:02:18;23.8;;;18.2;;
7454;SDS011;3769;51.208;4.454;2023-12-28T09:07:18;20.6;;;17.5;;
7454;SDS011;3769;51.208;4.454;2023-12-28T09:12:18;23.5;;;16.4;;
7454;SDS011;3769;51.208;4.454;2023-12-28T09:17:22;24.8;;;15.5;;
7454;SDS011;3769;51.208;4.454;2023-12-28T09:22:19;22.7;;;17.4;;
7454;SDS011;3769;51.208;4.454;2023-12-28T09:27:18;19.3;;;16.1;;
7454;SDS011;3769;51.208;4.454;2023-12-28T09:32:18;25;;;18.5;;
7454;SDS011;3769;51.208;4.454;2023-12-28T09:37:18;26.8;;;19;;
7454;SDS011;3769;51.208;4.454;2023-12-28T09:42:23;23.9;;;17.6;;
7454;SDS011;3769;51.208;4.454;2023-12-28T09:47:19;25;;;18.3;;
7454;SDS011;3769;51.208;4.454;2023-12-28T09:52:19;22;;;18.1;;
7454;SDS011;3769;51.208;4.454;2023-12-28T09:57:18;21.8;;;17.5;;
7454;SDS011;3769;51.208;4.454;2023-12-28T10:02:18;21.4;;;19.3;;
7454;SDS011;3769;51.208;4.454;2023-12-28T10:07:19;22.2;;;19.3;;
7454;SDS011;3769;51.208;4.454;2023-12-28T10:12:19;22.1;;;19.9;;
7454;SDS011;3769;51.208;4.454;2023-12-28T10:17:18;24.4;;;20;;
7454;SDS011;3769;51.208;4.454;2023-12-28T10:22:19;23.8;;;21.2;;
7454;SDS011;3769;51.208;4.454;2023-12-28T10:27:19;23.7;;;20.1;;
7454;SDS011;3769;51.208;4.454;2023-12-28T10:32:19;24.1;;;20.8;;
7454;SDS011;3769;51.208;4.454;2023-12-28T10:37:19;25.3;;;21.2;;
7454;SDS011;3769;51.208;4.454;2023-12-28T10:43:23;22.8;;;20.5;;
7454;SDS011;3769;51.208;4.454;2023-12-28T10:47:18;27.4;;;21.3;;
7454;SDS011;3769;51.208;4.454;2023-12-28T10:52:19;30.9;;;23.1;;
7454;SDS011;3769;51.208;4.454;2023-12-28T10:57:23;25.2;;;22.2;;
7454;SDS011;3769;51.208;4.454;2023-12-28T11:02:18;23.1;;;20.8;;
7454;SDS011;3769;51.208;4.454;2023-12-28T11:07:19;33.5;;;21.8;;
7454;SDS011;3769;51.208;4.454;2023-12-28T11:12:18;24.6;;;21.8;;
7454;SDS011;3769;51.208;4.454;2023-12-28T11:17:19;29.4;;;21.7;;
7454;SDS011;3769;51.208;4.454;2023-12-28T11:22:19;25.6;;;22.2;;
7454;SDS011;3769;51.208;4.454;2023-12-28T11:27:19;25.1;;;22.7;;
7454;SDS011;3769;51.208;4.454;2023-12-28T11:32:19;26.6;;;21.5;;
7454;SDS011;3769;51.208;4.454;2023-12-28T11:37:18;23.4;;;20.9;;
7454;SDS011;3769;51.208;4.454;2023-12-28T11:42:19;22.5;;;20.3;;
7454;SDS011;3769;51.208;4.454;2023-12-28T11:47:26;23.9;;;21.4;;
7454;SDS011;3769;51.208;4.454;2023-12-28T11:52:23;24.3;;;21.4;;
7454;SDS011;3769;51.208;4.454;2023-12-28T11:57:19;24.1;;;21.4;;
7454;SDS011;3769;51.208;4.454;2023-12-28T12:02:19;27.8;;;20.2;;
7454;SDS011;3769;51.208;4.454;2023-12-28T12:07:19;22.5;;;17.8;;
7454;SDS011;3769;51.208;4.454;2023-12-28T12:12:18;25.8;;;20.8;;
7454;SDS011;3769;51.208;4.454;2023-12-28T12:17:18;29.4;;;19.3;;
7454;SDS011;3769;51.208;4.454;2023-12-28T12:22:18;19.1;;;16;;
7454;SDS011;3769;51.208;4.454;2023-12-28T12:27:19;23.8;;;17.8;;
7454;SDS011;3769;51.208;4.454;2023-12-28T12:32:18;21;;;15.9;;
7454;SDS011;3769;51.208;4.454;2023-12-28T12:37:19;20.5;;;15.8;;
7454;SDS011;3769;51.208;4.454;2023-12-28T12:42:19;18;;;15.8;;
7454;SDS011;3769;51.208;4.454;2023-12-28T12:47:19;21.3;;;17.1;;
7454;SDS011;3769;51.208;4.454;2023-12-28T12:52:19;24.7;;;16.9;;
7454;SDS011;3769;51.208;4.454;2023-12-28T12:57:19;24.1;;;16.3;;
7454;SDS011;3769;51.208;4.454;2023-12-28T13:02:19;22.8;;;16.8;;
7454;SDS011;3769;51.208;4.454;2023-12-28T13:07:19;19.7;;;16.3;;
7454;SDS011;3769;51.208;4.454;2023-12-28T13:12:19;20.6;;;18.4;;
7454;SDS011;3769;51.208;4.454;2023-12-28T13:17:19;22.5;;;16.2;;
7454;SDS011;3769;51.208;4.454;2023-12-28T13:22:19;21.3;;;16.2;;
7454;SDS011;3769;51.208;4.454;2023-12-28T13:27:19;21.3;;;15.4;;
7454;SDS011;3769;51.208;4.454;2023-12-28T13:32:19;20.6;;;15.3;;
7454;SDS011;3769;51.208;4.454;2023-12-28T13:37:19;21.4;;;15.7;;
7454;SDS011;3769;51.208;4.454;2023-12-28T13:42:19;20.4;;;16.1;;
7454;SDS011;3769;51.208;4.454;2023-12-28T13:47:19;18.2;;;14.2;;
7454;SDS011;3769;51.208;4.454;2023-12-28T13:52:19;18.1;;;13.2;;
7454;SDS011;3769;51.208;4.454;2023-12-28T13:57:19;20.4;;;13.8;;
7454;SDS011;3769;51.208;4.454;2023-12-28T14:02:19;21.4;;;14;;
7454;SDS011;3769;51.208;4.454;2023-12-28T14:07:19;22.1;;;14.4;;
7454;SDS011;3769;51.208;4.454;2023-12-28T14:12:19;22.6;;;13.8;;
7454;SDS011;3769;51.208;4.454;2023-12-28T14:17:19;19.3;;;14;;
7454;SDS011;3769;51.208;4.454;2023-12-28T14:22:19;18;;;13.1;;
7454;SDS011;3769;51.208;4.454;2023-12-28T14:27:19;24;;;13;;
7454;SDS011;3769;51.208;4.454;2023-12-28T14:32:19;20;;;13.5;;
7454;SDS011;3769;51.208;4.454;2023-12-28T14:37:19;20;;;12.9;;
7454;SDS011;3769;51.208;4.454;2023-12-28T14:42:19;18.5;;;13.1;;
7454;SDS011;3769;51.208;4.454;2023-12-28T14:47:19;15.7;;;12.7;;
7454;SDS011;3769;51.208;4.454;2023-12-28T14:52:19;16.4;;;13.2;;
7454;SDS011;3769;51.208;4.454;2023-12-28T14:57:19;17.5;;;12.9;;
7454;SDS011;3769;51.208;4.454;2023-12-28T15:02:19;17.2;;;13.3;;
7454;SDS011;3769;51.208;4.454;2023-12-28T15:07:19;20.5;;;13.3;;
7454;SDS011;3769;51.208;4.454;2023-12-28T15:12:19;18.4;;;12.1;;
7454;SDS011;3769;51.208;4.454;2023-12-28T15:17:19;19.7;;;11.9;;
7454;SDS011;3769;51.208;4.454;2023-12-28T15:22:19;17.4;;;12.2;;
7454;SDS011;3769;51.208;4.454;2023-12-28T15:27:19;14.7;;;12;;
7454;SDS011;3769;51.208;4.454;2023-12-28T15:32:19;15.9;;;12.3;;
7454;SDS011;3769;51.208;4.454;2023-12-28T15:37:19;24.3;;;12.8;;
7454;SDS011;3769;51.208;4.454;2023-12-28T15:42:19;20.6;;;12.1;;
7454;SDS011;3769;51.208;4.454;2023-12-28T15:47:19;20.4;;;12.3;;
7454;SDS011;3769;51.208;4.454;2023-12-28T15:52:19;19.4;;;12.3;;
7454;SDS011;3769;51.208;4.454;2023-12-28T15:57:19;22.4;;;12.2;;
7454;SDS011;3769;51.208;4.454;2023-12-28T16:02:19;14.9;;;11.4;;
7454;SDS011;3769;51.208;4.454;2023-12-28T16:07:19;18.8;;;11.8;;
7454;SDS011;3769;51.208;4.454;2023-12-28T16:12:20;16.8;;;11.4;;
7454;SDS011;3769;51.208;4.454;2023-12-28T16:17:19;19.1;;;12.1;;
7454;SDS011;3769;51.208;4.454;2023-12-28T16:22:19;16.3;;;11.8;;
7454;SDS011;3769;51.208;4.454;2023-12-28T16:27:19;17.3;;;12.5;;
7454;SDS011;3769;51.208;4.454;2023-12-28T16:32:19;16.8;;;11.6;;
7454;SDS011;3769;51.208;4.454;2023-12-28T16:37:19;19.7;;;12.5;;
7454;SDS011;3769;51.208;4.454;2023-12-28T16:42:19;16.8;;;11.8;;
7454;SDS011;3769;51.208;4.454;2023-12-28T16:47:19;30.4;;;27.7;;
7454;SDS011;3769;51.208;4.454;2023-12-28T16:52:19;27.4;;;24.5;;
7454;SDS011;3769;51.208;4.454;2023-12-28T16:57:19;19;;;12.2;;
7454;SDS011;3769;51.208;4.454;2023-12-28T17:02:19;17.9;;;11.7;;
7454;SDS011;3769;51.208;4.454;2023-12-28T17:07:19;14.5;;;11.1;;
7454;SDS011;3769;51.208;4.454;2023-12-28T17:12:26;18;;;12.7;;
7454;SDS011;3769;51.208;4.454;2023-12-28T17:17:19;18.4;;;12.7;;
7454;SDS011;3769;51.208;4.454;2023-12-28T17:22:19;17.1;;;12.3;;
7454;SDS011;3769;51.208;4.454;2023-12-28T17:27:19;17.4;;;12.2;;
7454;SDS011;3769;51.208;4.454;2023-12-28T17:32:19;15.4;;;11.1;;
7454;SDS011;3769;51.208;4.454;2023-12-28T17:37:19;15.1;;;10.8;;
7454;SDS011;3769;51.208;4.454;2023-12-28T17:42:19;16.2;;;12.9;;
7454;SDS011;3769;51.208;4.454;2023-12-28T17:47:20;17.2;;;11.4;;
7454;SDS011;3769;51.208;4.454;2023-12-28T17:52:19;14.3;;;12.1;;
7454;SDS011;3769;51.208;4.454;2023-12-28T17:57:19;21.1;;;14.5;;
7454;SDS011;3769;51.208;4.454;2023-12-28T18:02:19;14.5;;;12.7;;
7454;SDS011;3769;51.208;4.454;2023-12-28T18:07:19;19.5;;;13.9;;
7454;SDS011;3769;51.208;4.454;2023-12-28T18:12:19;16.8;;;12;;
7454;SDS011;3769;51.208;4.454;2023-12-28T18:17:19;14;;;11.7;;
7454;SDS011;3769;51.208;4.454;2023-12-28T18:22:19;18.5;;;12.1;;
7454;SDS011;3769;51.208;4.454;2023-12-28T18:27:19;15.3;;;12.1;;
7454;SDS011;3769;51.208;4.454;2023-12-28T18:32:19;25.3;;;16.4;;
7454;SDS011;3769;51.208;4.454;2023-12-28T18:37:20;24.4;;;19.2;;
7454;SDS011;3769;51.208;4.454;2023-12-28T18:42:19;19.3;;;12.9;;
7454;SDS011;3769;51.208;4.454;2023-12-28T18:47:19;15.5;;;11.5;;
7454;SDS011;3769;51.208;4.454;2023-12-28T18:52:19;20.9;;;11.6;;
7454;SDS011;3769;51.208;4.454;2023-12-28T18:57:19;19.7;;;13.5;;
7454;SDS011;3769;51.208;4.454;2023-12-28T19:02:19;22.5;;;15.6;;
7454;SDS011;3769;51.208;4.454;2023-12-28T19:07:19;13.2;;;11.4;;
7454;SDS011;3769;51.208;4.454;2023-12-28T19:12:19;13.8;;;11.9;;
7454;SDS011;3769;51.208;4.454;2023-12-28T19:17:19;23.5;;;15;;
7454;SDS011;3769;51.208;4.454;2023-12-28T19:22:19;23.3;;;16.8;;
7454;SDS011;3769;51.208;4.454;2023-12-28T19:27:19;45.5;;;35.9;;
7454;SDS011;3769;51.208;4.454;2023-12-28T19:32:19;30.3;;;27.2;;
7454;SDS011;3769;51.208;4.454;2023-12-28T19:37:19;20.1;;;13.9;;
7454;SDS011;3769;51.208;4.454;2023-12-28T19:42:19;15.5;;;13.9;;
7454;SDS011;3769;51.208;4.454;2023-12-28T19:47:19;17.9;;;13;;
7454;SDS011;3769;51.208;4.454;2023-12-28T19:52:19;17.4;;;12.6;;
7454;SDS011;3769;51.208;4.454;2023-12-28T19:57:19;19.6;;;12.4;;
7454;SDS011;3769;51.208;4.454;2023-12-28T20:02:19;25.4;;;19.7;;
7454;SDS011;3769;51.208;4.454;2023-12-28T20:07:19;17.6;;;11.9;;
7454;SDS011;3769;51.208;4.454;2023-12-28T20:12:19;16.9;;;12;;
7454;SDS011;3769;51.208;4.454;2023-12-28T20:17:19;13;;;11.6;;
7454;SDS011;3769;51.208;4.454;2023-12-28T20:22:19;23;;;15.5;;
7454;SDS011;3769;51.208;4.454;2023-12-28T20:27:19;17.3;;;12.3;;
7454;SDS011;3769;51.208;4.454;2023-12-28T20:32:19;13.3;;;11.1;;
7454;SDS011;3769;51.208;4.454;2023-12-28T20:37:19;16.7;;;13.6;;
7454;SDS011;3769;51.208;4.454;2023-12-28T20:42:19;16.2;;;11.7;;
7454;SDS011;3769;51.208;4.454;2023-12-28T20:47:19;16.3;;;11.6;;
7454;SDS011;3769;51.208;4.454;2023-12-28T20:52:19;15.3;;;11.3;;
7454;SDS011;3769;51.208;4.454;2023-12-28T20:57:19;18.2;;;11.5;;
7454;SDS011;3769;51.208;4.454;2023-12-28T21:02:19;15.6;;;11.6;;
7454;SDS011;3769;51.208;4.454;2023-12-28T21:07:19;16.2;;;11.3;;
7454;SDS011;3769;51.208;4.454;2023-12-28T21:12:19;13.4;;;11.2;;
7454;SDS011;3769;51.208;4.454;2023-12-28T21:17:19;23.3;;;16.4;;
7454;SDS011;3769;51.208;4.454;2023-12-28T21:22:19;19.2;;;13.5;;
7454;SDS011;3769;51.208;4.454;2023-12-28T21:27:19;13.3;;;11.2;;
7454;SDS011;3769;51.208;4.454;2023-12-28T21:32:19;20.9;;;12.9;;
7454;SDS011;3769;51.208;4.454;2023-12-28T21:37:19;17.7;;;12;;
7454;SDS011;3769;51.208;4.454;2023-12-28T21:42:19;21.3;;;12.3;;
7454;SDS011;3769;51.208;4.454;2023-12-28T21:47:19;21;;;13.3;;
7454;SDS011;3769;51.208;4.454;2023-12-28T21:52:19;19.8;;;14;;
7454;SDS011;3769;51.208;4.454;2023-12-28T21:57:19;17.8;;;13.3;;
7454;SDS011;3769;51.208;4.454;2023-12-28T22:02:19;17.6;;;13.9;;
7454;SDS011;3769;51.208;4.454;2023-12-28T22:07:19;13.8;;;12;;
7454;SDS011;3769;51.208;4.454;2023-12-28T22:12:19;15.5;;;13.1;;
7454;SDS011;3769;51.208;4.454;2023-12-28T22:17:19;19;;;13.2;;
7454;SDS011;3769;51.208;4.454;2023-12-28T22:22:19;17.1;;;14.1;;
7454;SDS011;3769;51.208;4.454;2023-12-28T22:27:19;33.8;;;27.9;;
7454;SDS011;3769;51.208;4.454;2023-12-28T22:32:19;16.5;;;12.9;;
7454;SDS011;3769;51.208;4.454;2023-12-28T22:37:19;16.4;;;13.7;;
7454;SDS011;3769;51.208;4.454;2023-12-28T22:42:19;15.4;;;13.1;;
7454;SDS011;3769;51.208;4.454;2023-12-28T22:47:19;15.2;;;13.7;;
7454;SDS011;3769;51.208;4.454;2023-12-28T22:52:19;17.1;;;13.4;;
7454;SDS011;3769;51.208;4.454;2023-12-28T22:57:19;18.7;;;14.8;;
7454;SDS011;3769;51.208;4.454;2023-12-28T23:02:19;24.3;;;17.9;;
7454;SDS011;3769;51.208;4.454;2023-12-28T23:07:19;19.9;;;12.7;;
7454;SDS011;3769;51.208;4.454;2023-12-28T23:12:19;16;;;13.2;;
7454;SDS011;3769;51.208;4.454;2023-12-28T23:17:19;17.8;;;13;;
7454;SDS011;3769;51.208;4.454;2023-12-28T23:22:19;20.3;;;16.5;;
7454;SDS011;3769;51.208;4.454;2023-12-28T23:27:19;16.6;;;14.1;;
7454;SDS011;3769;51.208;4.454;2023-12-28T23:32:19;26.4;;;22.3;;
7454;SDS011;3769;51.208;4.454;2023-12-28T23:37:19;21.6;;;17.8;;
7454;SDS011;3769;51.208;4.454;2023-12-28T23:42:19;20.3;;;14.1;;
7454;SDS011;3769;51.208;4.454;2023-12-28T23:47:19;16.6;;;15.1;;
7454;SDS011;3769;51.208;4.454;2023-12-28T23:52:19;26.3;;;20.2;;
7454;SDS011;3769;51.208;4.454;2023-12-28T23:57:19;18.4;;;14.5;;
